Time,TemperatureF,DewpointF,PressureIn,WindDirection,WindDirectionDegrees,WindSpeedMPH,WindSpeedGustMPH,Humidity,HourlyPrecipIn,Conditions,Clouds,dailyrainin,SoftwareType,DateUTC
2013-04-07 00:00:00,49.2,29.8,29.62,WSW,252,0.0,14.0,47,0.00,,,0.00,Wunderground v.1.13,2013-04-07 06:00:00,
2013-04-07 00:05:00,49.1,29.7,29.61,WSW,252,0.0,14.0,47,0.00,,,0.00,Wunderground v.1.13,2013-04-07 06:05:00,
2013-04-07 00:10:00,48.9,29.5,29.61,WSW,252,0.0,14.0,47,0.00,,,0.00,Wunderground v.1.13,2013-04-07 06:10:00,
2013-04-07 00:15:00,48.8,30.0,29.61,WSW,252,0.0,14.0,48,0.00,,,0.00,Wunderground v.1.13,2013-04-07 06:15:00,
2013-04-07 00:20:00,48.5,29.7,29.61,WSW,252,0.0,14.0,48,0.00,,,0.00,Wunderground v.1.13,2013-04-07 06:20:00,
2013-04-07 00:25:00,48.5,29.2,29.61,WSW,252,0.0,14.0,47,0.00,,,0.00,Wunderground v.1.13,2013-04-07 06:25:00,
2013-04-07 00:30:00,48.5,29.2,29.61,WSW,252,0.0,14.0,47,0.00,,,0.00,Wunderground v.1.13,2013-04-07 06:30:00,
2013-04-07 00:35:00,48.5,29.7,29.61,WSW,252,0.0,14.0,48,0.00,,,0.00,Wunderground v.1.13,2013-04-07 06:35:00,
2013-04-07 00:45:00,48.2,29.9,29.61,WSW,253,0.0,14.0,49,0.00,,,0.00,Wunderground v.1.13,2013-04-07 06:45:00,
2013-04-07 00:50:00,48.0,30.2,29.61,WSW,253,0.0,14.0,50,0.00,,,0.00,Wunderground v.1.13,2013-04-07 06:50:00,
2013-04-07 00:55:00,47.7,30.0,29.61,WSW,253,0.0,14.0,50,0.00,,,0.00,Wunderground v.1.13,2013-04-07 06:55:00,
2013-04-07 01:00:00,47.4,30.2,29.61,WSW,253,0.0,14.0,51,0.00,,,0.00,Wunderground v.1.13,2013-04-07 07:00:00,
2013-04-07 01:10:00,47.1,29.9,29.62,WSW,252,0.0,14.0,51,0.00,,,0.00,Wunderground v.1.13,2013-04-07 07:10:00,
2013-04-07 01:15:00,47.3,30.1,29.62,WSW,252,0.0,14.0,51,0.00,,,0.00,Wunderground v.1.13,2013-04-07 07:15:00,
2013-04-07 01:25:00,48.2,30.4,29.62,WSW,253,0.0,14.0,50,0.00,,,0.00,Wunderground v.1.13,2013-04-07 07:25:00,
2013-04-07 01:30:00,48.3,30.5,29.62,WSW,252,0.0,14.0,50,0.00,,,0.00,Wunderground v.1.13,2013-04-07 07:30:00,
2013-04-07 01:35:00,49.1,30.7,29.62,WSW,252,0.0,14.0,49,0.00,,,0.00,Wunderground v.1.13,2013-04-07 07:35:00,
2013-04-07 01:40:00,49.5,31.1,29.62,WSW,252,0.0,14.0,49,0.00,,,0.00,Wunderground v.1.13,2013-04-07 07:40:00,
2013-04-07 01:45:00,49.6,31.2,29.62,WSW,252,0.0,14.0,49,0.00,,,0.00,Wunderground v.1.13,2013-04-07 07:45:00,
2013-04-07 01:50:00,49.6,31.2,29.61,WSW,252,0.0,14.0,49,0.00,,,0.00,Wunderground v.1.13,2013-04-07 07:50:00,
2013-04-07 01:55:00,49.5,31.6,29.61,WSW,252,0.0,14.0,50,0.00,,,0.00,Wunderground v.1.13,2013-04-07 07:55:00,
2013-04-07 02:00:00,49.4,32.0,29.61,WSW,252,0.0,14.0,51,0.00,,,0.00,Wunderground v.1.13,2013-04-07 08:00:00,
2013-04-07 02:05:00,49.2,31.8,29.61,WSW,252,0.0,14.0,51,0.00,,,0.00,Wunderground v.1.13,2013-04-07 08:05:00,
2013-04-07 02:10:00,49.1,31.7,29.61,WSW,252,0.0,14.0,51,0.00,,,0.00,Wunderground v.1.13,2013-04-07 08:10:00,
2013-04-07 02:15:00,48.9,32.0,29.61,WSW,252,0.0,14.0,52,0.00,,,0.00,Wunderground v.1.13,2013-04-07 08:15:00,
2013-04-07 02:20:00,48.8,31.9,29.60,WSW,252,0.0,14.0,52,0.00,,,0.00,Wunderground v.1.13,2013-04-07 08:20:00,
2013-04-07 02:25:00,48.8,31.9,29.60,WSW,252,0.0,14.0,52,0.00,,,0.00,Wunderground v.1.13,2013-04-07 08:25:00,
2013-04-07 02:30:00,48.8,32.4,29.60,WSW,252,0.0,14.0,53,0.00,,,0.00,Wunderground v.1.13,2013-04-07 08:30:00,
2013-04-07 02:35:00,48.8,32.4,29.59,WSW,252,0.0,14.0,53,0.00,,,0.00,Wunderground v.1.13,2013-04-07 08:35:00,
2013-04-07 02:40:00,48.9,32.0,29.59,WSW,252,0.0,14.0,52,0.00,,,0.00,Wunderground v.1.13,2013-04-07 08:40:00,
2013-04-07 02:45:00,49.2,32.8,29.59,WSW,252,0.0,14.0,53,0.00,,,0.00,Wunderground v.1.13,2013-04-07 08:45:00,
2013-04-07 02:50:00,49.4,33.0,29.59,WSW,252,0.0,14.0,53,0.00,,,0.00,Wunderground v.1.13,2013-04-07 08:50:00,
2013-04-07 02:55:00,49.4,33.0,29.59,WSW,252,0.0,14.0,53,0.00,,,0.00,Wunderground v.1.13,2013-04-07 08:55:00,
2013-04-07 03:00:00,49.2,32.8,29.59,WSW,252,0.0,14.0,53,0.00,,,0.00,Wunderground v.1.13,2013-04-07 09:00:00,
2013-04-07 03:05:00,49.1,32.7,29.59,WSW,252,0.0,14.0,53,0.00,,,0.00,Wunderground v.1.13,2013-04-07 09:05:00,
2013-04-07 03:15:00,48.5,33.1,29.59,WSW,257,0.0,14.0,55,0.00,,,0.00,Wunderground v.1.13,2013-04-07 09:15:00,
2013-04-07 03:20:00,48.3,32.9,29.59,WSW,257,0.0,14.0,55,0.00,,,0.00,Wunderground v.1.13,2013-04-07 09:20:00,
2013-04-07 03:25:00,48.3,32.9,29.59,WSW,257,0.0,14.0,55,0.00,,,0.00,Wunderground v.1.13,2013-04-07 09:25:00,
2013-04-07 03:30:00,48.2,32.8,29.59,WSW,257,0.0,14.0,55,0.00,,,0.00,Wunderground v.1.13,2013-04-07 09:30:00,
2013-04-07 03:35:00,48.0,33.0,29.58,WSW,257,0.0,14.0,56,0.00,,,0.00,Wunderground v.1.13,2013-04-07 09:35:00,
2013-04-07 03:40:00,47.7,32.8,29.58,WSW,257,0.0,14.0,56,0.00,,,0.00,Wunderground v.1.13,2013-04-07 09:40:00,
2013-04-07 03:45:00,47.7,33.2,29.58,WSW,257,0.0,14.0,57,0.00,,,0.00,Wunderground v.1.13,2013-04-07 09:45:00,
2013-04-07 03:50:00,47.7,32.8,29.58,WSW,257,0.0,14.0,56,0.00,,,0.00,Wunderground v.1.13,2013-04-07 09:50:00,
2013-04-07 03:55:00,47.6,33.1,29.58,WSW,257,0.0,14.0,57,0.00,,,0.00,Wunderground v.1.13,2013-04-07 09:55:00,
2013-04-07 04:00:00,47.6,32.7,29.58,WSW,257,0.0,14.0,56,0.00,,,0.00,Wunderground v.1.13,2013-04-07 10:00:00,
2013-04-07 04:05:00,47.6,32.7,29.58,WSW,257,0.0,14.0,56,0.00,,,0.00,Wunderground v.1.13,2013-04-07 10:05:00,
2013-04-07 04:10:00,47.7,32.8,29.58,WSW,257,0.0,14.0,56,0.00,,,0.00,Wunderground v.1.13,2013-04-07 10:10:00,
2013-04-07 04:15:00,48.0,33.0,29.58,WSW,257,0.0,14.0,56,0.00,,,0.00,Wunderground v.1.13,2013-04-07 10:15:00,
2013-04-07 04:25:00,48.3,33.3,29.57,SW,218,0.0,14.0,56,0.00,,,0.00,Wunderground v.1.13,2013-04-07 10:25:00,
2013-04-07 04:30:00,48.6,32.7,29.57,SW,218,0.0,14.0,54,0.00,,,0.00,Wunderground v.1.13,2013-04-07 10:30:00,
2013-04-07 04:40:00,48.9,33.4,29.57,SW,218,0.0,14.0,55,0.00,,,0.00,Wunderground v.1.13,2013-04-07 10:40:00,
2013-04-07 04:45:00,49.2,33.3,29.57,SSW,198,0.0,14.0,54,0.00,,,0.00,Wunderground v.1.13,2013-04-07 10:45:00,
2013-04-07 04:50:00,49.2,33.3,29.57,SSW,198,0.0,14.0,54,0.00,,,0.00,Wunderground v.1.13,2013-04-07 10:50:00,
2013-04-07 04:55:00,49.1,33.2,29.57,SSW,198,0.0,14.0,54,0.00,,,0.00,Wunderground v.1.13,2013-04-07 10:55:00,
2013-04-07 05:00:00,48.8,33.3,29.57,SSW,198,0.0,14.0,55,0.00,,,0.00,Wunderground v.1.13,2013-04-07 11:00:00,
2013-04-07 05:05:00,48.6,33.1,29.57,SSW,198,0.0,14.0,55,0.00,,,0.00,Wunderground v.1.13,2013-04-07 11:05:00,
2013-04-07 05:10:00,48.5,33.1,29.57,SSW,198,0.0,14.0,55,0.00,,,0.00,Wunderground v.1.13,2013-04-07 11:10:00,
2013-04-07 05:15:00,48.2,33.2,29.57,NW,312,0.0,14.0,56,0.00,,,0.00,Wunderground v.1.13,2013-04-07 11:15:00,
2013-04-07 05:20:00,48.2,32.8,29.58,NW,311,0.0,14.0,55,0.00,,,0.00,Wunderground v.1.13,2013-04-07 11:20:00,
2013-04-07 05:25:00,48.3,32.4,29.58,NW,311,0.0,14.0,54,0.00,,,0.00,Wunderground v.1.13,2013-04-07 11:25:00,
2013-04-07 05:30:00,48.5,32.6,29.58,NW,311,0.0,14.0,54,0.00,,,0.00,Wunderground v.1.13,2013-04-07 11:30:00,
2013-04-07 05:35:00,48.5,32.6,29.57,NW,311,0.0,14.0,54,0.00,,,0.00,Wunderground v.1.13,2013-04-07 11:35:00,
2013-04-07 05:45:00,48.2,32.8,29.57,NW,311,0.0,14.0,55,0.00,,,0.00,Wunderground v.1.13,2013-04-07 11:45:00,
2013-04-07 05:50:00,47.9,32.9,29.57,NW,311,0.0,14.0,56,0.00,,,0.00,Wunderground v.1.13,2013-04-07 11:50:00,
2013-04-07 05:55:00,47.6,32.7,29.57,NW,311,0.0,14.0,56,0.00,,,0.00,Wunderground v.1.13,2013-04-07 11:55:00,
2013-04-07 06:00:00,47.3,32.8,29.57,NW,311,0.0,14.0,57,0.00,,,0.00,Wunderground v.1.13,2013-04-07 12:00:00,
2013-04-07 06:05:00,47.1,32.6,29.57,NW,311,0.0,14.0,57,0.00,,,0.00,Wunderground v.1.13,2013-04-07 12:05:00,
2013-04-07 06:10:00,46.8,32.8,29.57,NW,311,0.0,14.0,58,0.00,,,0.00,Wunderground v.1.13,2013-04-07 12:10:00,
2013-04-07 06:15:00,46.8,32.8,29.57,NW,311,0.0,14.0,58,0.00,,,0.00,Wunderground v.1.13,2013-04-07 12:15:00,
2013-04-07 06:20:00,47.0,33.4,29.57,NW,311,0.0,14.0,59,0.00,,,0.00,Wunderground v.1.13,2013-04-07 12:20:00,
2013-04-07 06:25:00,48.5,33.1,29.57,NW,304,0.0,14.0,55,0.00,,,0.00,Wunderground v.1.13,2013-04-07 12:25:00,
2013-04-07 06:30:00,50.8,32.8,29.57,NW,304,1.0,1.0,50,0.00,,,0.00,Wunderground v.1.13,2013-04-07 12:30:00,
2013-04-07 06:35:00,52.2,33.1,29.58,NW,308,1.0,1.0,48,0.00,,,0.00,Wunderground v.1.13,2013-04-07 12:35:00,
2013-04-07 06:40:00,52.5,33.4,29.58,NW,308,0.0,14.0,48,0.00,,,0.00,Wunderground v.1.13,2013-04-07 12:40:00,
2013-04-07 06:45:00,52.6,33.5,29.58,WNW,296,0.0,14.0,48,0.00,,,0.00,Wunderground v.1.13,2013-04-07 12:45:00,
2013-04-07 06:50:00,52.6,32.9,29.58,WSW,237,0.0,14.0,47,0.00,,,0.00,Wunderground v.1.13,2013-04-07 12:50:00,
2013-04-07 06:55:00,50.7,33.7,29.58,SW,219,0.0,14.0,52,0.00,,,0.00,Wunderground v.1.13,2013-04-07 12:55:00,
2013-04-07 07:00:00,50.5,33.5,29.58,WSW,254,0.0,14.0,52,0.00,,,0.00,Wunderground v.1.13,2013-04-07 13:00:00,
2013-04-07 07:05:00,50.1,34.1,29.59,SW,223,2.0,2.0,54,0.00,,,0.00,Wunderground v.1.13,2013-04-07 13:05:00,
2013-04-07 07:10:00,49.9,33.9,29.59,WSW,238,2.0,2.0,54,0.00,,,0.00,Wunderground v.1.13,2013-04-07 13:10:00,
2013-04-07 07:15:00,49.9,33.9,29.59,West,281,0.0,14.0,54,0.00,,,0.00,Wunderground v.1.13,2013-04-07 13:15:00,
2013-04-07 07:20:00,49.9,35.3,29.59,West,265,0.0,14.0,57,0.00,,,0.00,Wunderground v.1.13,2013-04-07 13:20:00,
2013-04-07 07:25:00,49.9,34.8,29.59,WSW,248,2.0,14.0,56,0.00,,,0.00,Wunderground v.1.13,2013-04-07 13:25:00,
2013-04-07 07:30:00,50.4,34.8,29.59,WSW,248,4.0,4.0,55,0.00,,,0.00,Wunderground v.1.13,2013-04-07 13:30:00,
2013-04-07 07:35:00,50.8,34.3,29.61,WSW,251,3.0,3.0,53,0.00,,,0.00,Wunderground v.1.13,2013-04-07 13:35:00,
2013-04-07 07:40:00,51.1,34.5,29.61,WSW,252,0.0,14.0,53,0.00,,,0.00,Wunderground v.1.13,2013-04-07 13:40:00,
2013-04-07 07:45:00,51.4,34.8,29.61,WSW,241,0.0,14.0,53,0.00,,,0.00,Wunderground v.1.13,2013-04-07 13:45:00,
2013-04-07 07:50:00,51.9,34.8,29.62,SW,230,2.0,2.0,52,0.00,,,0.00,Wunderground v.1.13,2013-04-07 13:50:00,
2013-04-07 08:00:00,52.5,35.4,29.62,WSW,244,1.0,1.0,52,0.00,,,0.00,Wunderground v.1.13,2013-04-07 14:00:00,
2013-04-07 08:05:00,52.5,37.2,29.62,SW,225,0.0,14.0,56,0.00,,,0.00,Wunderground v.1.13,2013-04-07 14:05:00,
2013-04-07 08:10:00,52.0,38.5,29.62,SW,225,2.0,14.0,60,0.00,,,0.00,Wunderground v.1.13,2013-04-07 14:10:00,
2013-04-07 08:15:00,51.7,39.5,29.62,SW,234,3.0,3.0,63,0.00,,,0.00,Wunderground v.1.13,2013-04-07 14:15:00,
2013-04-07 08:25:00,50.2,41.2,29.62,SW,217,0.0,14.0,71,0.13,,,0.02,Wunderground v.1.13,2013-04-07 14:25:00,
2013-04-07 08:30:00,49.9,41.6,29.62,SW,217,0.0,14.0,73,0.10,,,0.03,Wunderground v.1.13,2013-04-07 14:30:00,
2013-04-07 08:35:00,49.6,41.7,29.61,SW,217,0.0,14.0,74,0.12,,,0.04,Wunderground v.1.13,2013-04-07 14:35:00,
2013-04-07 08:40:00,49.4,42.5,29.61,SW,217,0.0,14.0,77,0.10,,,0.04,Wunderground v.1.13,2013-04-07 14:40:00,
2013-04-07 08:45:00,49.2,43.3,29.61,SW,217,0.0,14.0,80,0.05,,,0.04,Wunderground v.1.13,2013-04-07 14:45:00,
2013-04-07 08:50:00,48.8,43.2,29.60,NW,315,0.0,14.0,81,0.04,,,0.04,Wunderground v.1.13,2013-04-07 14:50:00,
2013-04-07 08:55:00,48.8,43.5,29.60,NW,315,0.0,14.0,82,0.00,,,0.04,Wunderground v.1.13,2013-04-07 14:55:00,
2013-04-07 09:00:00,49.1,44.2,29.60,NNW,328,0.0,14.0,83,0.00,,,0.04,Wunderground v.1.13,2013-04-07 15:00:00,
2013-04-07 09:05:00,49.4,44.1,29.58,NNW,335,0.0,14.0,82,0.00,,,0.04,Wunderground v.1.13,2013-04-07 15:05:00,
2013-04-07 09:10:00,49.6,43.7,29.58,NNW,335,0.0,14.0,80,0.00,,,0.04,Wunderground v.1.13,2013-04-07 15:10:00,
2013-04-07 09:15:00,49.9,43.6,29.58,NNW,331,0.0,14.0,79,0.00,,,0.04,Wunderground v.1.13,2013-04-07 15:15:00,
2013-04-07 09:20:00,50.5,44.6,29.58,NNW,331,0.0,14.0,80,0.00,,,0.04,Wunderground v.1.13,2013-04-07 15:20:00,
2013-04-07 09:25:00,51.1,44.8,29.58,NNW,330,0.0,14.0,79,0.00,,,0.04,Wunderground v.1.13,2013-04-07 15:25:00,
2013-04-07 09:30:00,51.6,44.3,29.58,NNW,333,0.0,14.0,76,0.00,,,0.05,Wunderground v.1.13,2013-04-07 15:30:00,
2013-04-07 09:35:00,52.2,44.5,29.58,NW,315,0.0,14.0,75,0.00,,,0.05,Wunderground v.1.13,2013-04-07 15:35:00,
2013-04-07 09:40:00,52.8,45.1,29.58,NW,314,0.0,14.0,75,0.00,,,0.05,Wunderground v.1.13,2013-04-07 15:40:00,
2013-04-07 09:50:00,53.5,43.2,29.58,NW,304,1.0,14.0,68,0.00,,,0.05,Wunderground v.1.13,2013-04-07 15:50:00,
2013-04-07 09:55:00,53.6,43.7,29.58,NW,321,2.0,2.0,69,0.00,,,0.05,Wunderground v.1.13,2013-04-07 15:55:00,
2013-04-07 10:00:00,53.6,42.5,29.58,NW,322,2.0,2.0,66,0.00,,,0.05,Wunderground v.1.13,2013-04-07 16:00:00,
2013-04-07 10:05:00,53.6,42.9,29.58,NW,317,1.0,1.0,67,0.00,,,0.05,Wunderground v.1.13,2013-04-07 16:05:00,
2013-04-07 10:15:00,53.8,43.9,29.58,NNW,348,0.0,14.0,69,0.00,,,0.05,Wunderground v.1.13,2013-04-07 16:15:00,
2013-04-07 10:20:00,53.8,43.5,29.57,NNW,333,0.0,14.0,68,0.00,,,0.05,Wunderground v.1.13,2013-04-07 16:20:00,
2013-04-07 10:25:00,53.9,43.6,29.57,NNW,334,0.0,14.0,68,0.00,,,0.05,Wunderground v.1.13,2013-04-07 16:25:00,
2013-04-07 10:30:00,54.4,43.7,29.57,North,350,0.0,14.0,67,0.00,,,0.05,Wunderground v.1.13,2013-04-07 16:30:00,
2013-04-07 10:35:00,54.7,43.6,29.55,East,82,0.0,14.0,66,0.00,,,0.05,Wunderground v.1.13,2013-04-07 16:35:00,
2013-04-07 10:40:00,55.4,44.6,29.55,ENE,67,0.0,14.0,67,0.00,,,0.05,Wunderground v.1.13,2013-04-07 16:40:00,
2013-04-07 10:45:00,55.4,43.0,29.55,ENE,67,0.0,14.0,63,0.00,,,0.05,Wunderground v.1.13,2013-04-07 16:45:00,
2013-04-07 10:50:00,55.9,43.9,29.56,ENE,67,0.0,14.0,64,0.00,,,0.05,Wunderground v.1.13,2013-04-07 16:50:00,
2013-04-07 10:55:00,56.3,43.4,29.56,SE,137,0.0,14.0,62,0.00,,,0.05,Wunderground v.1.13,2013-04-07 16:55:00,
2013-04-07 11:00:00,57.3,44.4,29.56,SSE,147,0.0,14.0,62,0.00,,,0.05,Wunderground v.1.13,2013-04-07 17:00:00,
2013-04-07 11:05:00,57.8,44.0,29.56,ESE,105,0.0,14.0,60,0.00,,,0.05,Wunderground v.1.13,2013-04-07 17:05:00,
2013-04-07 11:10:00,58.6,43.4,29.56,ESE,113,0.0,14.0,57,0.00,,,0.05,Wunderground v.1.13,2013-04-07 17:10:00,
2013-04-07 11:15:00,58.6,43.4,29.56,SE,146,0.0,14.0,57,0.00,,,0.05,Wunderground v.1.13,2013-04-07 17:15:00,
2013-04-07 11:20:00,58.3,42.7,29.56,SE,142,0.0,14.0,56,0.00,,,0.05,Wunderground v.1.13,2013-04-07 17:20:00,
2013-04-07 11:25:00,58.9,43.2,29.56,ESE,109,0.0,14.0,56,0.00,,,0.05,Wunderground v.1.13,2013-04-07 17:25:00,
2013-04-07 11:30:00,59.0,44.2,29.56,ESE,122,0.0,14.0,58,0.00,,,0.05,Wunderground v.1.13,2013-04-07 17:30:00,
2013-04-07 11:35:00,59.2,44.0,29.55,ESE,116,0.0,14.0,57,0.00,,,0.05,Wunderground v.1.13,2013-04-07 17:35:00,
2013-04-07 11:40:00,60.1,44.8,29.55,SE,143,1.0,14.0,57,0.00,,,0.05,Wunderground v.1.13,2013-04-07 17:40:00,
2013-04-07 11:45:00,58.7,43.5,29.55,SE,146,1.0,14.0,57,0.00,,,0.05,Wunderground v.1.13,2013-04-07 17:45:00,
2013-04-07 11:50:00,58.0,43.3,29.54,SSE,159,1.0,1.0,58,0.00,,,0.05,Wunderground v.1.13,2013-04-07 17:50:00,
2013-04-07 11:55:00,58.3,43.6,29.54,SSE,159,0.0,14.0,58,0.00,,,0.05,Wunderground v.1.13,2013-04-07 17:55:00,
2013-04-07 12:00:00,58.3,44.5,29.54,ENE,76,0.0,14.0,60,0.00,,,0.05,Wunderground v.1.13,2013-04-07 18:00:00,
2013-04-07 12:05:00,58.4,44.1,29.54,SE,124,0.0,14.0,59,0.00,,,0.05,Wunderground v.1.13,2013-04-07 18:05:00,
2013-04-07 12:10:00,59.2,44.4,29.54,SE,124,0.0,14.0,58,0.00,,,0.05,Wunderground v.1.13,2013-04-07 18:10:00,
2013-04-07 12:15:00,59.8,44.5,29.54,East,84,0.0,14.0,57,0.00,,,0.05,Wunderground v.1.13,2013-04-07 18:15:00,
2013-04-07 12:20:00,59.5,44.7,29.53,East,87,1.0,1.0,58,0.00,,,0.05,Wunderground v.1.13,2013-04-07 18:20:00,
2013-04-07 12:25:00,59.5,43.3,29.53,East,83,1.0,14.0,55,0.00,,,0.05,Wunderground v.1.13,2013-04-07 18:25:00,
2013-04-07 12:30:00,60.5,44.7,29.53,SE,142,0.0,14.0,56,0.00,,,0.05,Wunderground v.1.13,2013-04-07 18:30:00,
2013-04-07 12:40:00,61.2,42.9,29.52,SSE,148,1.0,1.0,51,0.00,,,0.05,Wunderground v.1.13,2013-04-07 18:40:00,
2013-04-07 12:45:00,61.3,43.0,29.52,SSE,148,1.0,1.0,51,0.00,,,0.05,Wunderground v.1.13,2013-04-07 18:45:00,
2013-04-07 12:50:00,62.0,42.1,29.51,SSE,148,0.0,14.0,48,0.00,,,0.05,Wunderground v.1.13,2013-04-07 18:50:00,
2013-04-07 12:55:00,62.1,42.7,29.51,SSE,148,0.0,14.0,49,0.00,,,0.05,Wunderground v.1.13,2013-04-07 18:55:00,
2013-04-07 13:00:00,62.6,40.9,29.51,SSW,211,0.0,14.0,45,0.00,,,0.05,Wunderground v.1.13,2013-04-07 19:00:00,
2013-04-07 13:05:00,62.1,40.5,29.50,SW,214,1.0,14.0,45,0.00,,,0.05,Wunderground v.1.13,2013-04-07 19:05:00,
2013-04-07 13:10:00,61.5,39.4,29.50,SSW,207,2.0,14.0,44,0.00,,,0.05,Wunderground v.1.13,2013-04-07 19:10:00,
2013-04-07 13:15:00,61.0,39.5,29.50,WSW,256,2.0,2.0,45,0.00,,,0.05,Wunderground v.1.13,2013-04-07 19:15:00,
2013-04-07 13:20:00,61.2,40.2,29.50,West,281,1.0,1.0,46,0.00,,,0.05,Wunderground v.1.13,2013-04-07 19:20:00,
2013-04-07 13:25:00,62.0,40.4,29.50,SW,229,1.0,1.0,45,0.00,,,0.05,Wunderground v.1.13,2013-04-07 19:25:00,
2013-04-07 13:30:00,63.2,39.1,29.50,WSW,238,2.0,14.0,41,0.00,,,0.05,Wunderground v.1.13,2013-04-07 19:30:00,
2013-04-07 13:35:00,63.7,37.6,29.50,South,178,2.0,2.0,38,0.00,,,0.05,Wunderground v.1.13,2013-04-07 19:35:00,
2013-04-07 13:40:00,64.5,37.6,29.50,SW,225,2.0,2.0,37,0.00,,,0.05,Wunderground v.1.13,2013-04-07 19:40:00,
2013-04-07 13:45:00,64.8,37.2,29.50,West,260,2.0,14.0,36,0.00,,,0.05,Wunderground v.1.13,2013-04-07 19:45:00,
2013-04-07 13:50:00,64.8,37.2,29.48,WNW,303,2.0,2.0,36,0.00,,,0.05,Wunderground v.1.13,2013-04-07 19:50:00,
2013-04-07 13:55:00,65.5,38.5,29.48,South,174,1.0,14.0,37,0.00,,,0.05,Wunderground v.1.13,2013-04-07 19:55:00,
2013-04-07 14:00:00,65.2,36.8,29.48,SSW,202,3.0,14.0,35,0.00,,,0.05,Wunderground v.1.13,2013-04-07 20:00:00,
2013-04-07 14:05:00,64.7,36.4,29.48,South,190,4.0,4.0,35,0.00,,,0.05,Wunderground v.1.13,2013-04-07 20:05:00,
2013-04-07 14:10:00,65.0,34.4,29.48,South,187,2.0,14.0,32,0.00,,,0.05,Wunderground v.1.13,2013-04-07 20:10:00,
2013-04-07 14:15:00,66.0,34.5,29.48,SW,232,2.0,14.0,31,0.00,,,0.05,Wunderground v.1.13,2013-04-07 20:15:00,
2013-04-07 14:25:00,65.6,35.7,29.48,West,277,3.0,3.0,33,0.00,,,0.05,Wunderground v.1.13,2013-04-07 20:25:00,
2013-04-07 14:30:00,65.8,34.3,29.48,SW,226,2.0,2.0,31,0.00,,,0.05,Wunderground v.1.13,2013-04-07 20:30:00,
2013-04-07 14:35:00,66.6,35.0,29.46,SW,227,1.0,1.0,31,0.00,,,0.05,Wunderground v.1.13,2013-04-07 20:35:00,
2013-04-07 14:40:00,67.3,33.9,29.46,South,184,1.0,14.0,29,0.00,,,0.05,Wunderground v.1.13,2013-04-07 20:40:00,
2013-04-07 14:45:00,67.4,34.9,29.46,WSW,249,3.0,14.0,30,0.00,,,0.05,Wunderground v.1.13,2013-04-07 20:45:00,
2013-04-07 14:50:00,67.3,34.8,29.45,SW,224,4.0,4.0,30,0.00,,,0.05,Wunderground v.1.13,2013-04-07 20:50:00,
2013-04-07 14:55:00,67.9,34.4,29.45,WSW,244,2.0,2.0,29,0.00,,,0.05,Wunderground v.1.13,2013-04-07 20:55:00,
2013-04-07 15:00:00,68.1,34.6,29.45,SSW,199,2.0,14.0,29,0.00,,,0.05,Wunderground v.1.13,2013-04-07 21:00:00,
2013-04-07 15:05:00,67.4,34.0,29.45,SW,215,2.0,2.0,29,0.00,,,0.05,Wunderground v.1.13,2013-04-07 21:05:00,
2013-04-07 15:15:00,66.9,32.7,29.45,NW,325,2.0,2.0,28,0.00,,,0.05,Wunderground v.1.13,2013-04-07 21:15:00,
2013-04-07 15:25:00,66.8,32.6,29.45,NNW,330,0.0,14.0,28,0.00,,,0.05,Wunderground v.1.13,2013-04-07 21:25:00,
2013-04-07 15:30:00,67.1,32.9,29.45,WNW,290,0.0,14.0,28,0.00,,,0.05,Wunderground v.1.13,2013-04-07 21:30:00,
2013-04-07 15:35:00,67.6,33.3,29.44,WNW,296,2.0,2.0,28,0.00,,,0.05,Wunderground v.1.13,2013-04-07 21:35:00,
2013-04-07 15:40:00,67.9,33.6,29.44,WNW,290,3.0,14.0,28,0.00,,,0.05,Wunderground v.1.13,2013-04-07 21:40:00,
2013-04-07 15:45:00,68.1,33.7,29.44,NW,306,2.0,14.0,28,0.00,,,0.05,Wunderground v.1.13,2013-04-07 21:45:00,
2013-04-07 15:55:00,68.3,33.0,29.43,WSW,242,3.0,3.0,27,0.00,,,0.05,Wunderground v.1.13,2013-04-07 21:55:00,
2013-04-07 16:00:00,68.8,32.5,29.43,NW,304,2.0,14.0,26,0.00,,,0.05,Wunderground v.1.13,2013-04-07 22:00:00,
2013-04-07 16:05:00,68.9,33.5,29.43,NNW,336,4.0,4.0,27,0.00,,,0.05,Wunderground v.1.13,2013-04-07 22:05:00,
2013-04-07 16:10:00,69.6,34.1,29.43,West,265,3.0,3.0,27,0.00,,,0.05,Wunderground v.1.13,2013-04-07 22:10:00,
2013-04-07 16:15:00,69.8,33.3,29.43,NNE,13,4.0,14.0,26,0.00,,,0.05,Wunderground v.1.13,2013-04-07 22:15:00,
2013-04-07 16:20:00,69.3,30.9,29.42,NW,316,5.0,14.0,24,0.00,,,0.05,Wunderground v.1.13,2013-04-07 22:20:00,
2013-04-07 16:25:00,68.4,30.2,29.42,NNW,336,5.0,14.0,24,0.00,,,0.05,Wunderground v.1.13,2013-04-07 22:25:00,
2013-04-07 16:35:00,67.9,29.7,29.43,WNW,292,2.0,2.0,24,0.00,,,0.05,Wunderground v.1.13,2013-04-07 22:35:00,
2013-04-07 16:40:00,67.8,29.7,29.43,WNW,290,2.0,2.0,24,0.00,,,0.05,Wunderground v.1.13,2013-04-07 22:40:00,
2013-04-07 16:45:00,67.6,29.5,29.43,WNW,292,4.0,4.0,24,0.00,,,0.05,Wunderground v.1.13,2013-04-07 22:45:00,
2013-04-07 16:50:00,67.8,29.7,29.43,SW,236,5.0,14.0,24,0.00,,,0.05,Wunderground v.1.13,2013-04-07 22:50:00,
2013-04-07 16:55:00,68.1,29.9,29.43,WSW,249,7.0,7.0,24,0.00,,,0.05,Wunderground v.1.13,2013-04-07 22:55:00,
2013-04-07 17:00:00,68.1,29.9,29.43,WSW,254,7.0,7.0,24,0.00,,,0.05,Wunderground v.1.13,2013-04-07 23:00:00,
2013-04-07 17:05:00,68.8,30.5,29.43,WNW,285,4.0,14.0,24,0.00,,,0.05,Wunderground v.1.13,2013-04-07 23:05:00,
2013-04-07 17:15:00,68.4,30.2,29.43,WNW,283,6.0,14.0,24,0.00,,,0.05,Wunderground v.1.13,2013-04-07 23:15:00,
2013-04-07 17:20:00,68.4,30.2,29.43,WNW,300,4.0,4.0,24,0.00,,,0.05,Wunderground v.1.13,2013-04-07 23:20:00,
2013-04-07 17:25:00,68.3,30.1,29.43,NW,323,4.0,14.0,24,0.00,,,0.05,Wunderground v.1.13,2013-04-07 23:25:00,
2013-04-07 17:35:00,67.6,30.5,29.43,WNW,286,4.0,14.0,25,0.00,,,0.05,Wunderground v.1.13,2013-04-07 23:35:00,
2013-04-07 17:40:00,67.8,30.7,29.43,WNW,287,2.0,14.0,25,0.00,,,0.05,Wunderground v.1.13,2013-04-07 23:40:00,
2013-04-07 17:45:00,67.9,30.8,29.43,NW,313,2.0,2.0,25,0.00,,,0.05,Wunderground v.1.13,2013-04-07 23:45:00,
2013-04-07 17:50:00,67.8,30.7,29.43,West,275,2.0,2.0,25,0.00,,,0.05,Wunderground v.1.13,2013-04-07 23:50:00,
2013-04-07 17:55:00,67.4,30.3,29.43,WSW,244,1.0,1.0,25,0.00,,,0.05,Wunderground v.1.13,2013-04-07 23:55:00,
2013-04-07 18:00:00,67.1,31.0,29.43,West,265,1.0,1.0,26,0.00,,,0.05,Wunderground v.1.13,2013-04-08 00:00:00,
2013-04-07 18:10:00,66.8,29.8,29.43,WNW,292,2.0,2.0,25,0.00,,,0.05,Wunderground v.1.13,2013-04-08 00:10:00,
2013-04-07 18:15:00,66.6,29.6,29.43,NW,306,3.0,14.0,25,0.00,,,0.05,Wunderground v.1.13,2013-04-08 00:15:00,
2013-04-07 18:20:00,66.8,29.8,29.43,WNW,287,2.0,14.0,25,0.00,,,0.05,Wunderground v.1.13,2013-04-08 00:20:00,
2013-04-07 18:25:00,66.8,29.8,29.43,WNW,294,4.0,4.0,25,0.00,,,0.05,Wunderground v.1.13,2013-04-08 00:25:00,
2013-04-07 18:30:00,66.1,30.2,29.43,WNW,298,7.0,14.0,26,0.00,,,0.05,Wunderground v.1.13,2013-04-08 00:30:00,
2013-04-07 18:35:00,65.6,29.8,29.43,WNW,288,6.0,6.0,26,0.00,,,0.05,Wunderground v.1.13,2013-04-08 00:35:00,
2013-04-07 18:40:00,65.3,30.4,29.43,NW,304,6.0,6.0,27,0.00,,,0.05,Wunderground v.1.13,2013-04-08 00:40:00,
2013-04-07 18:45:00,64.8,30.0,29.43,NW,307,5.0,5.0,27,0.00,,,0.05,Wunderground v.1.13,2013-04-08 00:45:00,
2013-04-07 18:50:00,64.3,29.6,29.43,WNW,300,5.0,14.0,27,0.00,,,0.05,Wunderground v.1.13,2013-04-08 00:50:00,
2013-04-07 18:55:00,63.9,30.1,29.43,WNW,301,4.0,14.0,28,0.00,,,0.05,Wunderground v.1.13,2013-04-08 00:55:00,
2013-04-07 19:00:00,63.4,28.8,29.43,West,273,1.0,1.0,27,0.00,,,0.05,Wunderground v.1.13,2013-04-08 01:00:00,
2013-04-07 19:05:00,63.1,29.4,29.43,West,275,1.0,1.0,28,0.00,,,0.05,Wunderground v.1.13,2013-04-08 01:05:00,
2013-04-07 19:15:00,62.3,29.6,29.43,WNW,289,0.0,14.0,29,0.00,,,0.05,Wunderground v.1.13,2013-04-08 01:15:00,
2013-04-07 19:20:00,61.8,29.2,29.43,WNW,288,0.0,14.0,29,0.00,,,0.05,Wunderground v.1.13,2013-04-08 01:20:00,
2013-04-07 19:25:00,61.5,29.7,29.43,WNW,288,0.0,14.0,30,0.00,,,0.05,Wunderground v.1.13,2013-04-08 01:25:00,
2013-04-07 19:30:00,61.2,29.5,29.43,WNW,284,0.0,14.0,30,0.00,,,0.05,Wunderground v.1.13,2013-04-08 01:30:00,
2013-04-07 19:35:00,60.9,30.0,29.43,West,281,0.0,14.0,31,0.00,,,0.05,Wunderground v.1.13,2013-04-08 01:35:00,
2013-04-07 19:40:00,60.5,29.7,29.43,WNW,283,0.0,14.0,31,0.00,,,0.05,Wunderground v.1.13,2013-04-08 01:40:00,
2013-04-07 19:45:00,60.2,29.4,29.43,WNW,283,0.0,14.0,31,0.00,,,0.05,Wunderground v.1.13,2013-04-08 01:45:00,
2013-04-07 19:50:00,60.1,29.3,29.43,West,281,0.0,14.0,31,0.00,,,0.05,Wunderground v.1.13,2013-04-08 01:50:00,
2013-04-07 19:55:00,59.6,29.7,29.43,West,281,0.0,14.0,32,0.00,,,0.05,Wunderground v.1.13,2013-04-08 01:55:00,
2013-04-07 20:00:00,59.2,30.1,29.43,West,281,0.0,14.0,33,0.00,,,0.05,Wunderground v.1.13,2013-04-08 02:00:00,
2013-04-07 20:05:00,59.0,29.9,29.43,West,281,0.0,14.0,33,0.00,,,0.05,Wunderground v.1.13,2013-04-08 02:05:00,
2013-04-07 20:10:00,58.7,30.4,29.43,West,281,0.0,14.0,34,0.00,,,0.05,Wunderground v.1.13,2013-04-08 02:10:00,
2013-04-07 20:15:00,58.6,29.6,29.43,West,271,0.0,14.0,33,0.00,,,0.05,Wunderground v.1.13,2013-04-08 02:15:00,
2013-04-07 20:20:00,58.4,29.4,29.44,West,261,0.0,14.0,33,0.00,,,0.05,Wunderground v.1.13,2013-04-08 02:20:00,
2013-04-07 20:25:00,58.3,30.0,29.44,West,267,0.0,14.0,34,0.00,,,0.05,Wunderground v.1.13,2013-04-08 02:25:00,
2013-04-07 20:35:00,58.0,30.5,29.44,West,267,0.0,14.0,35,0.00,,,0.05,Wunderground v.1.13,2013-04-08 02:35:00,
2013-04-07 20:40:00,57.6,30.1,29.44,West,267,0.0,14.0,35,0.00,,,0.05,Wunderground v.1.13,2013-04-08 02:40:00,
2013-04-07 20:45:00,57.5,30.7,29.44,West,267,0.0,14.0,36,0.00,,,0.05,Wunderground v.1.13,2013-04-08 02:45:00,
2013-04-07 20:55:00,57.0,30.3,29.45,West,267,0.0,14.0,36,0.00,,,0.05,Wunderground v.1.13,2013-04-08 02:55:00,
2013-04-07 21:00:00,56.9,30.2,29.45,West,267,0.0,14.0,36,0.00,,,0.05,Wunderground v.1.13,2013-04-08 03:00:00,
2013-04-07 21:05:00,57.0,31.0,29.44,West,267,0.0,14.0,37,0.00,,,0.05,Wunderground v.1.13,2013-04-08 03:05:00,
2013-04-07 21:10:00,56.7,30.7,29.44,West,272,0.0,14.0,37,0.00,,,0.05,Wunderground v.1.13,2013-04-08 03:10:00,
2013-04-07 21:15:00,57.0,31.0,29.44,West,270,1.0,1.0,37,0.00,,,0.05,Wunderground v.1.13,2013-04-08 03:15:00,
2013-04-07 21:20:00,57.2,30.5,29.45,WNW,282,0.0,14.0,36,0.00,,,0.05,Wunderground v.1.13,2013-04-08 03:20:00,
2013-04-07 21:30:00,57.3,31.2,29.45,WNW,282,0.0,14.0,37,0.00,,,0.05,Wunderground v.1.13,2013-04-08 03:30:00,
2013-04-07 21:40:00,58.0,31.8,29.45,SW,231,2.0,2.0,37,0.00,,,0.05,Wunderground v.1.13,2013-04-08 03:40:00,
2013-04-07 21:45:00,56.2,32.2,29.45,SSW,207,1.0,1.0,40,0.00,,,0.05,Wunderground v.1.13,2013-04-08 03:45:00,
2013-04-07 21:50:00,55.0,32.3,29.46,SSW,207,0.0,14.0,42,0.00,,,0.05,Wunderground v.1.13,2013-04-08 03:50:00,
2013-04-07 21:55:00,54.7,32.0,29.46,SSW,207,0.0,14.0,42,0.00,,,0.05,Wunderground v.1.13,2013-04-08 03:55:00,
2013-04-07 22:00:00,54.4,32.3,29.46,SSW,207,0.0,14.0,43,0.00,,,0.05,Wunderground v.1.13,2013-04-08 04:00:00,
2013-04-07 22:05:00,54.1,32.6,29.45,SSW,207,0.0,14.0,44,0.00,,,0.05,Wunderground v.1.13,2013-04-08 04:05:00,
2013-04-07 22:10:00,53.9,32.5,29.45,SSW,207,0.0,14.0,44,0.00,,,0.05,Wunderground v.1.13,2013-04-08 04:10:00,
2013-04-07 22:15:00,53.3,33.0,29.45,SSW,207,0.0,14.0,46,0.00,,,0.05,Wunderground v.1.13,2013-04-08 04:15:00,
2013-04-07 22:20:00,52.9,33.2,29.45,SSW,207,0.0,14.0,47,0.00,,,0.05,Wunderground v.1.13,2013-04-08 04:20:00,
2013-04-07 22:35:00,52.3,33.2,29.45,SSW,207,0.0,14.0,48,0.00,,,0.05,Wunderground v.1.13,2013-04-08 04:35:00,
2013-04-07 22:40:00,52.3,33.2,29.45,SSW,207,0.0,14.0,48,0.00,,,0.05,Wunderground v.1.13,2013-04-08 04:40:00,
2013-04-07 22:50:00,52.2,32.6,29.45,SSW,207,0.0,14.0,47,0.00,,,0.05,Wunderground v.1.13,2013-04-08 04:50:00,
2013-04-07 22:55:00,52.2,32.6,29.45,SSW,207,0.0,14.0,47,0.00,,,0.05,Wunderground v.1.13,2013-04-08 04:55:00,
2013-04-07 23:00:00,52.3,32.6,29.45,SSW,207,0.0,14.0,47,0.00,,,0.05,Wunderground v.1.13,2013-04-08 05:00:00,
2013-04-07 23:05:00,52.5,32.8,29.44,SSW,208,0.0,14.0,47,0.00,,,0.05,Wunderground v.1.13,2013-04-08 05:05:00,
2013-04-07 23:10:00,53.1,32.8,29.44,WSW,250,0.0,14.0,46,0.00,,,0.05,Wunderground v.1.13,2013-04-08 05:10:00,
2013-04-07 23:15:00,53.8,32.4,29.44,WSW,251,0.0,14.0,44,0.00,,,0.05,Wunderground v.1.13,2013-04-08 05:15:00,
2013-04-07 23:20:00,54.4,32.9,29.43,WSW,254,0.0,14.0,44,0.00,,,0.05,Wunderground v.1.13,2013-04-08 05:20:00,
2013-04-07 23:25:00,54.5,33.0,29.43,WSW,257,0.0,14.0,44,0.00,,,0.05,Wunderground v.1.13,2013-04-08 05:25:00,
2013-04-07 23:35:00,54.2,33.3,29.43,WSW,257,0.0,14.0,45,0.00,,,0.05,Wunderground v.1.13,2013-04-08 05:35:00,
2013-04-07 23:40:00,53.8,33.5,29.43,WSW,256,0.0,14.0,46,0.00,,,0.05,Wunderground v.1.13,2013-04-08 05:40:00,
2013-04-07 23:45:00,53.5,33.2,29.43,WSW,257,0.0,14.0,46,0.00,,,0.05,Wunderground v.1.13,2013-04-08 05:45:00,
2013-04-07 23:50:00,53.2,33.5,29.44,WSW,257,0.0,14.0,47,0.00,,,0.05,Wunderground v.1.13,2013-04-08 05:50:00,
2013-04-07 23:55:00,52.9,33.2,29.44,WSW,257,0.0,14.0,47,0.00,,,0.05,Wunderground v.1.13,2013-04-08 05:55:00,